sensor_id;sensor_type;location;lat;lon;timestamp;pressure;altitude;pressure_sealevel;temperature;humidity
71043;BME280;58696;52.134;5.500;2023-05-03T00:00:59;103133.13;;;4.93;80.32
71043;BME280;58696;52.134;5.500;2023-05-03T00:03:27;103138.22;;;4.93;79.96
71043;BME280;58696;52.134;5.500;2023-05-03T00:05:56;103131.38;;;4.94;79.87
71043;BME280;58696;52.134;5.500;2023-05-03T00:08:23;103128.38;;;4.87;79.79
71043;BME280;58696;52.134;5.500;2023-05-03T00:10:49;103123.78;;;4.78;79.54
71043;BME280;58696;52.134;5.500;2023-05-03T00:13:18;103131.06;;;4.70;80.24
71043;BME280;58696;52.134;5.500;2023-05-03T00:15:47;103131.50;;;4.62;80.33
71043;BME280;58696;52.134;5.500;2023-05-03T00:18:13;103127.41;;;4.60;80.59
71043;BME280;58696;52.134;5.500;2023-05-03T00:20:40;103121.47;;;4.59;80.58
71043;BME280;58696;52.134;5.500;2023-05-03T00:23:06;103131.81;;;4.56;80.38
71043;BME280;58696;52.134;5.500;2023-05-03T00:25:38;103123.09;;;4.46;80.59
71043;BME280;58696;52.134;5.500;2023-05-03T00:28:06;103128.59;;;4.38;80.92
71043;BME280;58696;52.134;5.500;2023-05-03T00:30:36;103126.53;;;4.29;81.05
71043;BME280;58696;52.134;5.500;2023-05-03T00:33:02;103128.44;;;4.26;81.59
71043;BME280;58696;52.134;5.500;2023-05-03T00:35:31;103125.81;;;4.27;81.56
71043;BME280;58696;52.134;5.500;2023-05-03T00:37:58;103133.09;;;4.33;81.71
71043;BME280;58696;52.134;5.500;2023-05-03T00:40:26;103136.56;;;4.32;81.50
71043;BME280;58696;52.134;5.500;2023-05-03T00:42:53;103129.34;;;4.25;81.99
71043;BME280;58696;52.134;5.500;2023-05-03T00:45:22;103127.78;;;4.22;81.77
71043;BME280;58696;52.134;5.500;2023-05-03T00:47:48;103128.03;;;4.17;81.84
71043;BME280;58696;52.134;5.500;2023-05-03T00:50:17;103135.03;;;4.14;81.96
71043;BME280;58696;52.134;5.500;2023-05-03T00:52:46;103122.56;;;4.09;82.16
71043;BME280;58696;52.134;5.500;2023-05-03T00:55:18;103120.75;;;4.11;82.27
71043;BME280;58696;52.134;5.500;2023-05-03T00:57:45;103125.81;;;4.11;82.52
71043;BME280;58696;52.134;5.500;2023-05-03T01:00:15;103133.38;;;4.13;83.18
71043;BME280;58696;52.134;5.500;2023-05-03T01:02:44;103127.41;;;4.14;83.16
71043;BME280;58696;52.134;5.500;2023-05-03T01:05:15;103123.63;;;4.05;83.20
71043;BME280;58696;52.134;5.500;2023-05-03T01:08:18;103127.47;;;3.96;83.46
71043;BME280;58696;52.134;5.500;2023-05-03T01:11:06;103126.00;;;3.92;83.99
71043;BME280;58696;52.134;5.500;2023-05-03T01:18:44;103129.13;;;3.98;84.26
71043;BME280;58696;52.134;5.500;2023-05-03T01:21:18;103134.22;;;3.98;84.27
71043;BME280;58696;52.134;5.500;2023-05-03T01:26:26;103134.53;;;3.91;84.93
71043;BME280;58696;52.134;5.500;2023-05-03T01:28:54;103129.59;;;3.88;84.76
71043;BME280;58696;52.134;5.500;2023-05-03T01:31:25;103123.78;;;3.86;85.05
71043;BME280;58696;52.134;5.500;2023-05-03T01:36:33;103130.91;;;3.80;85.15
71043;BME280;58696;52.134;5.500;2023-05-03T01:39:08;103123.44;;;3.77;85.33
71043;BME280;58696;52.134;5.500;2023-05-03T01:41:40;103123.38;;;3.78;85.52
71043;BME280;58696;52.134;5.500;2023-05-03T01:44:08;103120.81;;;3.78;85.48
71043;BME280;58696;52.134;5.500;2023-05-03T01:46:46;103118.47;;;3.75;85.57
71043;BME280;58696;52.134;5.500;2023-05-03T01:49:18;103124.59;;;3.71;85.37
71043;BME280;58696;52.134;5.500;2023-05-03T01:51:47;103120.41;;;3.70;85.59
71043;BME280;58696;52.134;5.500;2023-05-03T01:54:13;103116.97;;;3.71;85.50
71043;BME280;58696;52.134;5.500;2023-05-03T01:56:40;103125.66;;;3.67;85.62
71043;BME280;58696;52.134;5.500;2023-05-03T01:59:06;103129.44;;;3.60;85.52
71043;BME280;58696;52.134;5.500;2023-05-03T02:01:36;103121.94;;;3.57;85.45
71043;BME280;58696;52.134;5.500;2023-05-03T02:04:03;103120.31;;;3.56;85.58
71043;BME280;58696;52.134;5.500;2023-05-03T02:06:29;103120.44;;;3.53;85.75
71043;BME280;58696;52.134;5.500;2023-05-03T02:08:59;103113.59;;;3.55;85.82
71043;BME280;58696;52.134;5.500;2023-05-03T02:11:26;103121.22;;;3.55;85.70
71043;BME280;58696;52.134;5.500;2023-05-03T02:13:52;103120.31;;;3.56;85.72
71043;BME280;58696;52.134;5.500;2023-05-03T02:16:19;103113.50;;;3.56;85.48
71043;BME280;58696;52.134;5.500;2023-05-03T02:18:48;103111.09;;;3.53;85.42
71043;BME280;58696;52.134;5.500;2023-05-03T02:21:14;103110.56;;;3.48;85.11
71043;BME280;58696;52.134;5.500;2023-05-03T02:23:41;103108.06;;;3.47;85.06
71043;BME280;58696;52.134;5.500;2023-05-03T02:26:10;103104.13;;;3.41;85.08
71043;BME280;58696;52.134;5.500;2023-05-03T02:28:36;103100.03;;;3.38;85.04
71043;BME280;58696;52.134;5.500;2023-05-03T02:31:05;103094.69;;;3.27;84.76
71043;BME280;58696;52.134;5.500;2023-05-03T02:33:32;103096.69;;;3.21;85.06
71043;BME280;58696;52.134;5.500;2023-05-03T02:35:59;103103.81;;;3.14;84.95
71043;BME280;58696;52.134;5.500;2023-05-03T02:38:29;103095.16;;;3.01;85.21
71043;BME280;58696;52.134;5.500;2023-05-03T02:41:00;103099.75;;;2.94;85.17
71043;BME280;58696;52.134;5.500;2023-05-03T02:43:27;103098.84;;;2.95;85.19
71043;BME280;58696;52.134;5.500;2023-05-03T02:45:58;103093.00;;;2.93;85.30
71043;BME280;58696;52.134;5.500;2023-05-03T02:48:25;103088.00;;;2.92;85.52
71043;BME280;58696;52.134;5.500;2023-05-03T02:50:56;103082.84;;;2.93;85.59
71043;BME280;58696;52.134;5.500;2023-05-03T02:53:25;103087.09;;;2.93;85.46
71043;BME280;58696;52.134;5.500;2023-05-03T02:55:54;103074.63;;;2.88;85.64
71043;BME280;58696;52.134;5.500;2023-05-03T02:58:23;103074.34;;;2.77;85.36
71043;BME280;58696;52.134;5.500;2023-05-03T03:00:49;103072.50;;;2.63;85.60
71043;BME280;58696;52.134;5.500;2023-05-03T03:03:21;103077.19;;;2.53;85.76
71043;BME280;58696;52.134;5.500;2023-05-03T03:05:50;103080.03;;;2.47;85.93
71043;BME280;58696;52.134;5.500;2023-05-03T03:08:19;103073.22;;;2.48;86.07
71043;BME280;58696;52.134;5.500;2023-05-03T03:10:48;103080.09;;;2.46;86.49
71043;BME280;58696;52.134;5.500;2023-05-03T03:13:17;103081.53;;;2.51;86.61
71043;BME280;58696;52.134;5.500;2023-05-03T03:15:43;103083.00;;;2.55;86.42
71043;BME280;58696;52.134;5.500;2023-05-03T03:18:11;103091.72;;;2.50;86.25
71043;BME280;58696;52.134;5.500;2023-05-03T03:20:41;103096.88;;;2.48;86.74
71043;BME280;58696;52.134;5.500;2023-05-03T03:23:08;103093.53;;;2.48;86.76
71043;BME280;58696;52.134;5.500;2023-05-03T03:25:36;103087.56;;;2.49;87.17
71043;BME280;58696;52.134;5.500;2023-05-03T03:28:03;103095.97;;;2.49;87.34
71043;BME280;58696;52.134;5.500;2023-05-03T03:30:32;103093.53;;;2.48;87.40
71043;BME280;58696;52.134;5.500;2023-05-03T03:33:01;103096.06;;;2.48;87.60
71043;BME280;58696;52.134;5.500;2023-05-03T03:35:30;103089.66;;;2.58;87.56
71043;BME280;58696;52.134;5.500;2023-05-03T03:37:57;103095.63;;;2.57;87.39
71043;BME280;58696;52.134;5.500;2023-05-03T03:40:26;103087.41;;;2.52;87.57
71043;BME280;58696;52.134;5.500;2023-05-03T03:42:54;103090.91;;;2.49;87.20
71043;BME280;58696;52.134;5.500;2023-05-03T03:45:21;103096.88;;;2.48;87.52
71043;BME280;58696;52.134;5.500;2023-05-03T03:47:48;103097.78;;;2.47;87.71
71043;BME280;58696;52.134;5.500;2023-05-03T03:50:17;103100.03;;;2.53;87.78
71043;BME280;58696;52.134;5.500;2023-05-03T03:52:44;103099.06;;;2.56;87.80
71043;BME280;58696;52.134;5.500;2023-05-03T03:55:16;103104.97;;;2.56;87.83
71043;BME280;58696;52.134;5.500;2023-05-03T03:57:44;103108.97;;;2.60;87.94
71043;BME280;58696;52.134;5.500;2023-05-03T04:00:11;103110.66;;;2.61;88.04
71043;BME280;58696;52.134;5.500;2023-05-03T04:02:38;103108.94;;;2.62;88.06
71043;BME280;58696;52.134;5.500;2023-05-03T04:05:06;103115.63;;;2.63;87.78
71043;BME280;58696;52.134;5.500;2023-05-03T04:07:33;103114.66;;;2.66;87.82
71043;BME280;58696;52.134;5.500;2023-05-03T04:10:03;103117.44;;;2.61;87.66
71043;BME280;58696;52.134;5.500;2023-05-03T04:12:30;103104.38;;;2.51;87.43
71043;BME280;58696;52.134;5.500;2023-05-03T04:14:57;103114.94;;;2.42;87.27
71043;BME280;58696;52.134;5.500;2023-05-03T04:17:23;103115.97;;;2.38;87.33
71043;BME280;58696;52.134;5.500;2023-05-03T04:19:50;103112.31;;;2.44;87.37
71043;BME280;58696;52.134;5.500;2023-05-03T04:22:19;103122.56;;;2.42;87.15
71043;BME280;58696;52.134;5.500;2023-05-03T04:24:48;103122.63;;;2.41;86.93
71043;BME280;58696;52.134;5.500;2023-05-03T04:27:15;103128.00;;;2.34;86.96
71043;BME280;58696;52.134;5.500;2023-05-03T04:29:43;103127.50;;;2.45;86.89
71043;BME280;58696;52.134;5.500;2023-05-03T04:32:09;103136.47;;;2.52;86.81
71043;BME280;58696;52.134;5.500;2023-05-03T04:34:41;103139.53;;;2.59;86.79
71043;BME280;58696;52.134;5.500;2023-05-03T04:37:17;103143.34;;;2.68;86.76
71043;BME280;58696;52.134;5.500;2023-05-03T04:39:44;103148.34;;;2.69;86.50
71043;BME280;58696;52.134;5.500;2023-05-03T04:42:11;103151.19;;;2.63;86.25
71043;BME280;58696;52.134;5.500;2023-05-03T04:44:43;103154.75;;;2.59;86.27
71043;BME280;58696;52.134;5.500;2023-05-03T04:47:10;103160.00;;;2.56;86.28
71043;BME280;58696;52.134;5.500;2023-05-03T04:49:37;103160.66;;;2.59;86.40
71043;BME280;58696;52.134;5.500;2023-05-03T04:52:07;103153.44;;;2.69;86.16
71043;BME280;58696;52.134;5.500;2023-05-03T04:54:35;103163.19;;;2.77;86.19
71043;BME280;58696;52.134;5.500;2023-05-03T04:57:07;103165.69;;;2.78;86.30
71043;BME280;58696;52.134;5.500;2023-05-03T04:59:35;103173.69;;;3.56;86.49
71043;BME280;58696;52.134;5.500;2023-05-03T05:02:02;103162.47;;;5.15;82.02
71043;BME280;58696;52.134;5.500;2023-05-03T05:04:28;103165.56;;;6.05;78.40
71043;BME280;58696;52.134;5.500;2023-05-03T05:06:55;103159.41;;;7.15;74.09
71043;BME280;58696;52.134;5.500;2023-05-03T05:09:23;103159.78;;;7.96;70.58
71043;BME280;58696;52.134;5.500;2023-05-03T05:11:52;103156.06;;;8.37;68.41
71043;BME280;58696;52.134;5.500;2023-05-03T05:14:25;103154.84;;;9.00;66.35
71043;BME280;58696;52.134;5.500;2023-05-03T05:16:52;103158.66;;;10.07;63.73
71043;BME280;58696;52.134;5.500;2023-05-03T05:19:19;103163.38;;;10.75;60.11
71043;BME280;58696;52.134;5.500;2023-05-03T05:21:45;103158.97;;;11.08;58.59
71043;BME280;58696;52.134;5.500;2023-05-03T05:24:14;103165.50;;;11.43;56.58
71043;BME280;58696;52.134;5.500;2023-05-03T05:26:43;103167.28;;;11.82;56.41
71043;BME280;58696;52.134;5.500;2023-05-03T05:29:09;103165.41;;;12.52;53.39
71043;BME280;58696;52.134;5.500;2023-05-03T05:31:38;103165.16;;;13.02;51.93
71043;BME280;58696;52.134;5.500;2023-05-03T05:34:05;103161.47;;;13.14;52.06
71043;BME280;58696;52.134;5.500;2023-05-03T05:36:32;103165.00;;;13.23;51.49
71043;BME280;58696;52.134;5.500;2023-05-03T05:39:03;103161.38;;;12.97;50.16
71043;BME280;58696;52.134;5.500;2023-05-03T05:41:30;103160.25;;;13.09;50.83
71043;BME280;58696;52.134;5.500;2023-05-03T05:43:57;103172.66;;;13.42;49.88
71043;BME280;58696;52.134;5.500;2023-05-03T05:46:24;103170.84;;;13.53;49.92
71043;BME280;58696;52.134;5.500;2023-05-03T05:48:53;103167.72;;;13.94;49.57
71043;BME280;58696;52.134;5.500;2023-05-03T05:51:19;103172.66;;;15.45;46.69
71043;BME280;58696;52.134;5.500;2023-05-03T05:53:46;103164.69;;;16.14;44.99
71043;BME280;58696;52.134;5.500;2023-05-03T05:56:13;103162.88;;;15.73;41.67
71043;BME280;58696;52.134;5.500;2023-05-03T05:58:42;103170.53;;;14.55;44.30
71043;BME280;58696;52.134;5.500;2023-05-03T06:01:09;103168.84;;;14.28;45.04
71043;BME280;58696;52.134;5.500;2023-05-03T06:03:36;103161.19;;;13.55;46.94
71043;BME280;58696;52.134;5.500;2023-05-03T06:06:02;103165.81;;;14.50;46.45
71043;BME280;58696;52.134;5.500;2023-05-03T06:08:29;103171.84;;;15.53;43.89
71043;BME280;58696;52.134;5.500;2023-05-03T06:10:55;103178.69;;;15.62;43.66
71043;BME280;58696;52.134;5.500;2023-05-03T06:13:23;103173.81;;;16.26;42.18
71043;BME280;58696;52.134;5.500;2023-05-03T06:15:52;103173.94;;;16.41;41.94
71043;BME280;58696;52.134;5.500;2023-05-03T06:18:21;103173.59;;;16.68;41.23
71043;BME280;58696;52.134;5.500;2023-05-03T06:20:50;103170.75;;;17.19;40.12
71043;BME280;58696;52.134;5.500;2023-05-03T06:23:19;103167.06;;;17.75;40.38
71043;BME280;58696;52.134;5.500;2023-05-03T06:25:50;103173.66;;;17.24;39.72
71043;BME280;58696;52.134;5.500;2023-05-03T06:28:17;103175.59;;;16.34;40.63
71043;BME280;58696;52.134;5.500;2023-05-03T06:30:49;103175.81;;;15.23;41.46
71043;BME280;58696;52.134;5.500;2023-05-03T06:33:16;103172.44;;;14.96;42.72
71043;BME280;58696;52.134;5.500;2023-05-03T06:35:42;103156.72;;;15.32;42.62
71043;BME280;58696;52.134;5.500;2023-05-03T06:38:14;103158.72;;;15.04;43.82
71043;BME280;58696;52.134;5.500;2023-05-03T06:40:41;103156.13;;;16.21;41.72
71043;BME280;58696;52.134;5.500;2023-05-03T06:43:14;103153.50;;;16.13;40.35
71043;BME280;58696;52.134;5.500;2023-05-03T06:45:42;103158.22;;;15.93;42.58
71043;BME280;58696;52.134;5.500;2023-05-03T06:48:09;103157.56;;;16.24;41.03
71043;BME280;58696;52.134;5.500;2023-05-03T06:50:40;103157.59;;;16.32;39.09
71043;BME280;58696;52.134;5.500;2023-05-03T06:53:09;103157.91;;;15.46;42.06
71043;BME280;58696;52.134;5.500;2023-05-03T06:55:35;103151.72;;;15.89;40.81
71043;BME280;58696;52.134;5.500;2023-05-03T06:58:06;103162.44;;;16.60;39.47
71043;BME280;58696;52.134;5.500;2023-05-03T07:00:36;103157.34;;;15.76;41.80
71043;BME280;58696;52.134;5.500;2023-05-03T07:03:06;103151.88;;;15.71;39.59
71043;BME280;58696;52.134;5.500;2023-05-03T07:05:36;103164.69;;;15.39;41.03
71043;BME280;58696;52.134;5.500;2023-05-03T07:08:04;103165.66;;;15.38;40.90
71043;BME280;58696;52.134;5.500;2023-05-03T07:10:34;103154.97;;;14.98;42.05
71043;BME280;58696;52.134;5.500;2023-05-03T07:13:00;103148.19;;;15.48;41.33
71043;BME280;58696;52.134;5.500;2023-05-03T07:15:27;103146.88;;;16.11;41.30
71043;BME280;58696;52.134;5.500;2023-05-03T07:17:56;103144.13;;;15.88;39.94
71043;BME280;58696;52.134;5.500;2023-05-03T07:20:22;103133.56;;;15.81;40.50
71043;BME280;58696;52.134;5.500;2023-05-03T07:22:51;103143.19;;;15.55;40.82
71043;BME280;58696;52.134;5.500;2023-05-03T07:25:18;103145.44;;;16.16;40.22
71043;BME280;58696;52.134;5.500;2023-05-03T07:27:44;103127.72;;;16.44;40.71
71043;BME280;58696;52.134;5.500;2023-05-03T07:30:11;103132.28;;;16.34;40.66
71043;BME280;58696;52.134;5.500;2023-05-03T07:32:40;103133.06;;;15.77;40.62
71043;BME280;58696;52.134;5.500;2023-05-03T07:35:07;103118.47;;;15.93;40.93
71043;BME280;58696;52.134;5.500;2023-05-03T07:37:34;103103.59;;;15.78;41.02
71043;BME280;58696;52.134;5.500;2023-05-03T07:40:05;103110.56;;;15.94;40.21
71043;BME280;58696;52.134;5.500;2023-05-03T07:42:34;103109.25;;;15.90;41.65
71043;BME280;58696;52.134;5.500;2023-05-03T07:45:01;103110.34;;;16.45;38.94
71043;BME280;58696;52.134;5.500;2023-05-03T07:47:32;103112.44;;;16.74;40.44
71043;BME280;58696;52.134;5.500;2023-05-03T07:50:03;103105.50;;;16.25;40.13
71043;BME280;58696;52.134;5.500;2023-05-03T07:52:35;103097.41;;;16.37;41.86
71043;BME280;58696;52.134;5.500;2023-05-03T07:55:07;103100.63;;;16.47;41.12
71043;BME280;58696;52.134;5.500;2023-05-03T07:57:34;103099.50;;;16.33;39.62
71043;BME280;58696;52.134;5.500;2023-05-03T08:00:03;103094.56;;;17.18;37.95
71043;BME280;58696;52.134;5.500;2023-05-03T08:02:31;103092.63;;;17.74;38.17
71043;BME280;58696;52.134;5.500;2023-05-03T08:05:03;103104.69;;;17.05;38.15
71043;BME280;58696;52.134;5.500;2023-05-03T08:07:36;103098.59;;;17.29;36.42
71043;BME280;58696;52.134;5.500;2023-05-03T08:10:05;103087.69;;;16.14;38.22
71043;BME280;58696;52.134;5.500;2023-05-03T08:12:31;103092.81;;;15.57;38.72
71043;BME280;58696;52.134;5.500;2023-05-03T08:15:00;103097.50;;;15.45;39.87
71043;BME280;58696;52.134;5.500;2023-05-03T08:17:30;103090.47;;;16.04;41.49
71043;BME280;58696;52.134;5.500;2023-05-03T08:19:57;103098.22;;;16.29;39.39
71043;BME280;58696;52.134;5.500;2023-05-03T08:22:23;103096.44;;;16.38;40.96
71043;BME280;58696;52.134;5.500;2023-05-03T08:24:54;103100.81;;;15.96;38.04
71043;BME280;58696;52.134;5.500;2023-05-03T08:27:21;103097.13;;;15.99;40.04
71043;BME280;58696;52.134;5.500;2023-05-03T08:29:50;103095.34;;;15.99;39.88
71043;BME280;58696;52.134;5.500;2023-05-03T08:32:23;103086.41;;;15.86;39.42
71043;BME280;58696;52.134;5.500;2023-05-03T08:34:54;103082.19;;;15.93;39.52
71043;BME280;58696;52.134;5.500;2023-05-03T08:37:22;103067.59;;;16.08;38.01
71043;BME280;58696;52.134;5.500;2023-05-03T08:39:53;103058.38;;;16.06;39.58
71043;BME280;58696;52.134;5.500;2023-05-03T08:42:20;103064.78;;;15.44;40.31
71043;BME280;58696;52.134;5.500;2023-05-03T08:44:49;103065.78;;;14.67;40.54
71043;BME280;58696;52.134;5.500;2023-05-03T08:47:18;103067.88;;;14.37;42.42
71043;BME280;58696;52.134;5.500;2023-05-03T08:49:51;103080.25;;;14.26;42.91
71043;BME280;58696;52.134;5.500;2023-05-03T08:52:18;103082.03;;;14.25;42.87
71043;BME280;58696;52.134;5.500;2023-05-03T08:54:48;103086.03;;;14.02;43.64
71043;BME280;58696;52.134;5.500;2023-05-03T08:57:16;103088.41;;;13.77;44.96
71043;BME280;58696;52.134;5.500;2023-05-03T08:59:47;103099.03;;;14.10;42.49
71043;BME280;58696;52.134;5.500;2023-05-03T09:02:14;103099.41;;;13.97;42.39
71043;BME280;58696;52.134;5.500;2023-05-03T09:04:43;103099.94;;;13.65;44.20
71043;BME280;58696;52.134;5.500;2023-05-03T09:07:11;103092.78;;;14.38;45.90
71043;BME280;58696;52.134;5.500;2023-05-03T09:09:38;103093.66;;;14.73;45.72
71043;BME280;58696;52.134;5.500;2023-05-03T09:12:07;103100.56;;;14.64;44.26
71043;BME280;58696;52.134;5.500;2023-05-03T09:14:43;103102.16;;;14.57;45.38
71043;BME280;58696;52.134;5.500;2023-05-03T09:17:15;103094.19;;;14.33;46.32
71043;BME280;58696;52.134;5.500;2023-05-03T09:19:53;103088.81;;;14.26;43.74
71043;BME280;58696;52.134;5.500;2023-05-03T09:22:30;103098.59;;;13.97;43.00
71043;BME280;58696;52.134;5.500;2023-05-03T09:24:58;103101.16;;;13.97;46.78
71043;BME280;58696;52.134;5.500;2023-05-03T09:27:28;103103.69;;;14.06;45.44
71043;BME280;58696;52.134;5.500;2023-05-03T09:29:54;103111.19;;;14.35;43.98
71043;BME280;58696;52.134;5.500;2023-05-03T09:32:21;103103.53;;;14.26;44.71
71043;BME280;58696;52.134;5.500;2023-05-03T09:34:48;103093.47;;;14.66;43.53
71043;BME280;58696;52.134;5.500;2023-05-03T09:37:16;103094.34;;;14.83;43.83
71043;BME280;58696;52.134;5.500;2023-05-03T09:39:44;103100.91;;;15.46;44.18
71043;BME280;58696;52.134;5.500;2023-05-03T09:42:17;103101.03;;;14.94;44.91
71043;BME280;58696;52.134;5.500;2023-05-03T09:44:48;103104.91;;;15.32;43.37
71043;BME280;58696;52.134;5.500;2023-05-03T09:47:17;103090.41;;;15.56;43.06
71043;BME280;58696;52.134;5.500;2023-05-03T09:49:53;103103.88;;;15.75;43.85
71043;BME280;58696;52.134;5.500;2023-05-03T09:52:20;103096.53;;;15.55;40.98
71043;BME280;58696;52.134;5.500;2023-05-03T09:54:51;103104.44;;;15.37;40.82
71043;BME280;58696;52.134;5.500;2023-05-03T09:57:25;103097.06;;;14.73;43.33
71043;BME280;58696;52.134;5.500;2023-05-03T09:59:53;103092.75;;;15.24;42.63
71043;BME280;58696;52.134;5.500;2023-05-03T10:02:21;103091.59;;;15.19;44.21
71043;BME280;58696;52.134;5.500;2023-05-03T10:04:52;103093.59;;;15.41;43.30
71043;BME280;58696;52.134;5.500;2023-05-03T10:07:25;103088.59;;;15.48;42.24
71043;BME280;58696;52.134;5.500;2023-05-03T10:09:55;103092.41;;;15.19;44.25
71043;BME280;58696;52.134;5.500;2023-05-03T10:12:24;103086.28;;;15.29;41.52
71043;BME280;58696;52.134;5.500;2023-05-03T10:14:51;103085.03;;;15.49;41.18
71043;BME280;58696;52.134;5.500;2023-05-03T10:19:54;103083.63;;;14.70;41.43
71043;BME280;58696;52.134;5.500;2023-05-03T10:22:23;103078.09;;;14.65;43.81
71043;BME280;58696;52.134;5.500;2023-05-03T10:30:08;103068.91;;;15.13;41.42
71043;BME280;58696;52.134;5.500;2023-05-03T10:32:54;103055.84;;;15.22;43.40
71043;BME280;58696;52.134;5.500;2023-05-03T10:35:28;103052.13;;;15.41;44.80
71043;BME280;58696;52.134;5.500;2023-05-03T10:37:55;103062.53;;;15.49;44.33
71043;BME280;58696;52.134;5.500;2023-05-03T10:40:40;103062.91;;;15.63;44.24
71043;BME280;58696;52.134;5.500;2023-05-03T10:46:07;103054.81;;;15.90;42.12
71043;BME280;58696;52.134;5.500;2023-05-03T10:48:37;103052.69;;;15.86;42.33
71043;BME280;58696;52.134;5.500;2023-05-03T10:53:56;103060.44;;;16.26;39.00
71043;BME280;58696;52.134;5.500;2023-05-03T10:56:27;103052.34;;;15.97;39.00
71043;BME280;58696;52.134;5.500;2023-05-03T10:58:55;103047.03;;;15.82;40.97
71043;BME280;58696;52.134;5.500;2023-05-03T11:01:23;103050.44;;;15.83;41.15
71043;BME280;58696;52.134;5.500;2023-05-03T11:04:21;103046.69;;;15.69;41.07
71043;BME280;58696;52.134;5.500;2023-05-03T11:06:53;103039.41;;;15.89;41.18
71043;BME280;58696;52.134;5.500;2023-05-03T11:09:29;103044.25;;;16.00;41.48
71043;BME280;58696;52.134;5.500;2023-05-03T11:11:57;103032.41;;;16.14;45.26
71043;BME280;58696;52.134;5.500;2023-05-03T11:14:26;103033.38;;;16.21;42.15
71043;BME280;58696;52.134;5.500;2023-05-03T11:16:52;103025.78;;;16.11;40.36
71043;BME280;58696;52.134;5.500;2023-05-03T11:19:22;103021.41;;;15.87;42.01
71043;BME280;58696;52.134;5.500;2023-05-03T11:21:50;103015.91;;;15.98;41.73
71043;BME280;58696;52.134;5.500;2023-05-03T11:24:19;103009.75;;;15.99;44.12
71043;BME280;58696;52.134;5.500;2023-05-03T11:26:46;103009.03;;;16.22;43.07
71043;BME280;58696;52.134;5.500;2023-05-03T11:29:16;103006.81;;;16.58;40.27
71043;BME280;58696;52.134;5.500;2023-05-03T11:31:43;102997.94;;;16.92;39.72
71043;BME280;58696;52.134;5.500;2023-05-03T11:34:12;103001.47;;;16.60;39.86
71043;BME280;58696;52.134;5.500;2023-05-03T11:36:41;103004.75;;;16.93;39.59
71043;BME280;58696;52.134;5.500;2023-05-03T11:39:11;102999.63;;;16.76;38.29
71043;BME280;58696;52.134;5.500;2023-05-03T11:41:40;103007.97;;;16.95;39.54
71043;BME280;58696;52.134;5.500;2023-05-03T11:44:07;102989.88;;;16.78;39.29
71043;BME280;58696;52.134;5.500;2023-05-03T11:46:46;103003.84;;;17.31;39.55
71043;BME280;58696;52.134;5.500;2023-05-03T11:49:17;102995.88;;;17.10;35.73
71043;BME280;58696;52.134;5.500;2023-05-03T11:51:45;102994.94;;;16.16;36.97
71043;BME280;58696;52.134;5.500;2023-05-03T11:54:16;102989.09;;;16.22;41.20
71043;BME280;58696;52.134;5.500;2023-05-03T11:56:56;102987.19;;;16.55;42.15
71043;BME280;58696;52.134;5.500;2023-05-03T11:59:37;102976.34;;;16.91;41.40
71043;BME280;58696;52.134;5.500;2023-05-03T12:02:08;102981.84;;;16.96;40.55
71043;BME280;58696;52.134;5.500;2023-05-03T12:04:39;102984.16;;;16.91;42.74
71043;BME280;58696;52.134;5.500;2023-05-03T12:07:11;102970.91;;;17.01;41.25
71043;BME280;58696;52.134;5.500;2023-05-03T12:09:45;102978.78;;;16.93;38.31
71043;BME280;58696;52.134;5.500;2023-05-03T12:12:31;102971.16;;;16.91;40.36
71043;BME280;58696;52.134;5.500;2023-05-03T12:15:05;102967.00;;;17.28;37.80
71043;BME280;58696;52.134;5.500;2023-05-03T12:17:38;102956.50;;;16.98;39.03
71043;BME280;58696;52.134;5.500;2023-05-03T12:20:16;102952.50;;;17.11;38.92
71043;BME280;58696;52.134;5.500;2023-05-03T12:22:54;102953.97;;;17.13;40.01
71043;BME280;58696;52.134;5.500;2023-05-03T12:25:24;102951.66;;;17.18;38.73
71043;BME280;58696;52.134;5.500;2023-05-03T12:28:00;102952.69;;;16.86;37.08
71043;BME280;58696;52.134;5.500;2023-05-03T12:30:48;102950.44;;;17.29;37.21
71043;BME280;58696;52.134;5.500;2023-05-03T12:33:21;102940.66;;;16.85;37.63
71043;BME280;58696;52.134;5.500;2023-05-03T12:35:48;102935.22;;;16.72;41.25
71043;BME280;58696;52.134;5.500;2023-05-03T12:38:19;102940.88;;;17.44;40.53
71043;BME280;58696;52.134;5.500;2023-05-03T12:40:50;102936.69;;;17.58;35.87
71043;BME280;58696;52.134;5.500;2023-05-03T12:43:16;102942.13;;;17.11;36.38
71043;BME280;58696;52.134;5.500;2023-05-03T12:45:45;102933.28;;;16.97;37.47
71043;BME280;58696;52.134;5.500;2023-05-03T12:48:29;102925.78;;;17.40;36.65
71043;BME280;58696;52.134;5.500;2023-05-03T12:51:00;102916.59;;;17.52;37.90
71043;BME280;58696;52.134;5.500;2023-05-03T12:53:45;102915.16;;;17.34;37.33
71043;BME280;58696;52.134;5.500;2023-05-03T12:56:15;102911.19;;;17.24;40.67
71043;BME280;58696;52.134;5.500;2023-05-03T12:58:42;102907.19;;;17.13;38.74
71043;BME280;58696;52.134;5.500;2023-05-03T13:01:30;102907.66;;;16.94;36.42
71043;BME280;58696;52.134;5.500;2023-05-03T13:04:01;102903.44;;;16.93;38.42
71043;BME280;58696;52.134;5.500;2023-05-03T13:06:31;102904.19;;;17.39;36.47
71043;BME280;58696;52.134;5.500;2023-05-03T13:09:07;102894.81;;;17.53;35.71
71043;BME280;58696;52.134;5.500;2023-05-03T13:11:37;102895.91;;;17.21;37.77
71043;BME280;58696;52.134;5.500;2023-05-03T13:14:04;102884.25;;;17.69;36.00
71043;BME280;58696;52.134;5.500;2023-05-03T13:16:35;102889.56;;;17.76;34.98
71043;BME280;58696;52.134;5.500;2023-05-03T13:19:06;102880.91;;;17.60;36.00
71043;BME280;58696;52.134;5.500;2023-05-03T13:21:35;102874.22;;;17.51;35.61
71043;BME280;58696;52.134;5.500;2023-05-03T13:24:04;102883.31;;;17.32;37.68
71043;BME280;58696;52.134;5.500;2023-05-03T13:26:34;102873.66;;;17.41;38.83
71043;BME280;58696;52.134;5.500;2023-05-03T13:29:01;102859.34;;;17.75;38.10
71043;BME280;58696;52.134;5.500;2023-05-03T13:31:27;102862.03;;;17.81;35.78